Latest Weather Observations for Archerfield

IDQ60901

Issued at 2:41 pm EST Saturday 22 February 2020 (issued every 10 minutes, with the page automatically refreshed every 10 minutes)

About weather observations | Map of Brisbane area stations | Latest observations for Brisbane area | Other Formats
Station Details ID: 040211 Name: ARCHERFIELD AIRPORT Lat: -27.57 Lon: 153.01 Height: 12.5 m
Data from the previous 72 hours. | See also: Recent months at Archerfield
Date/Time
EST
Temp
°C
App
Temp
°C
Dew
Point
°C
Rel
Hum
%
Delta-T
°C
Wind Press
QNH
hPa
Press
MSL
hPa
Rain since
9am
mm
Dir  Spd
km/h
Gust
km/h
Spd
kts
Gust
kts
22/02:30pm 26.6 24.0 16.8 55 6.1 ESE 26 37 14 20 1018.5 1018.4 0.0
22/02:00pm 26.2 23.0 16.4 54 6.0 ESE 28 43 15 23 1018.5 1018.4 0.0
22/01:30pm 26.3 22.2 16.0 53 6.3 SE 32 44 17 24 1018.9 1018.8 0.0
22/01:00pm 27.2 23.8 16.8 53 6.5 ESE 30 41 16 22 1019.1 1019.0 0.0
22/12:30pm 27.3 24.3 17.8 56 6.0 ESE 30 43 16 23 1019.2 1019.1 0.0
22/12:00pm 26.9 23.3 17.7 57 5.8 ESE 33 46 18 25 1019.3 1019.2 0.0
22/11:30am 27.4 24.0 18.1 57 5.9 SE 33 44 18 24 1019.6 1019.5 0.0
22/11:00am 27.6 25.1 18.0 55 6.1 ESE 28 37 15 20 1019.6 1019.5 0.0
22/10:30am 28.4 27.5 19.1 57 6.0 ESE 22 35 12 19 1019.8 1019.7 0.0
22/10:00am 28.3 26.8 19.5 59 5.7 ESE 26 35 14 19 1019.9 1019.8 0.0
22/09:30am 27.0 25.9 18.6 60 5.4 ESE 22 32 12 17 1019.9 1019.8 0.0
22/09:00am 26.8 25.6 18.4 60 5.3 SE 22 32 12 17 1019.7 1019.6 0.0
22/08:30am 26.7 26.6 18.8 62 5.1 SSE 17 24 9 13 1019.5 1019.4 0.0
22/08:00am 25.4 25.5 18.3 65 4.5 SSE 15 19 8 10 1019.4 1019.3 0.0
22/07:30am 25.4 25.6 18.6 66 4.3 SE 15 19 8 10 1019.2 1019.1 0.0
22/07:00am 24.9 25.9 18.6 68 4.0 SE 11 13 6 7 1018.9 1018.8 0.0
22/06:30am 23.6 24.2 18.5 73 3.2 SE 13 19 7 10 1018.4 1018.3 0.0
22/06:00am 22.7 23.7 18.7 78 2.5 SSE 11 13 6 7 1018.0 1017.9 0.0
22/05:30am 22.4 24.2 18.8 80 2.3 S 7 11 4 6 1017.6 1017.5 0.0
22/05:00am 22.7 24.0 18.5 77 2.6 S 9 11 5 6 1017.2 1017.1 0.0
22/04:30am 22.8 24.6 18.3 76 2.8 SSE 6 7 3 4 1017.0 1016.9 0.0
22/04:00am 23.2 24.8 17.9 72 3.3 SE 6 7 3 4 1016.7 1016.6 0.0
22/03:30am 22.6 24.4 17.5 73 3.2 ENE 4 7 2 4 1016.4 1016.3 0.0
22/03:00am 23.3 24.6 17.5 70 3.6 E 7 11 4 6 1016.3 1016.2 0.0
22/02:30am 24.0 24.6 17.7 68 3.9 ESE 11 15 6 8 1016.3 1016.2 0.0
22/02:00am 24.1 24.7 17.8 68 3.9 ESE 11 13 6 7 1016.3 1016.2 0.0
22/01:30am 23.8 24.4 17.8 69 3.7 ESE 11 15 6 8 1016.4 1016.3 0.0
22/01:00am 24.1 24.0 17.8 68 3.9 ESE 15 19 8 10 1016.5 1016.4 0.0
22/12:30am 24.6 24.3 17.3 64 4.5 ESE 15 20 8 11 1016.6 1016.5 0.0
22/12:00am 24.6 24.8 17.6 65 4.4 ESE 13 17 7 9 1016.7 1016.6 0.0
 
Date/Time
EST
Temp
°C
App
Temp
°C
Dew
Point
°C
Rel
Hum
%
Delta-T
°C
Wind Press
QNH
hPa
Press
MSL
hPa
Rain since
9am
mm
Dir  Spd
km/h
Gust
km/h
Spd
kts
Gust
kts
21/11:30pm 24.4 25.3 17.6 66 4.2 ESE 9 13 5 7 1016.9 1016.8 0.0
21/11:00pm 24.4 24.5 17.4 65 4.3 ESE 13 17 7 9 1016.9 1016.8 0.0
21/10:30pm 24.5 25.0 17.5 65 4.4 E 11 15 6 8 1016.9 1016.8 0.0
21/10:00pm 24.3 24.9 17.8 67 4.1 ESE 11 15 6 8 1016.8 1016.7 0.0
21/09:30pm 24.2 24.5 17.9 68 3.9 ESE 13 15 7 8 1016.7 1016.6 0.0
21/09:00pm 24.4 25.0 17.6 66 4.2 ESE 11 19 6 10 1016.5 1016.4 0.0
21/08:30pm 25.0 24.5 17.7 64 4.6 E 17 22 9 12 1016.1 1016.0 0.0
21/08:00pm 25.4 25.0 18.1 64 4.6 E 17 24 9 13 1015.6 1015.5 0.0
21/07:30pm 25.5 24.8 18.2 64 4.6 E 19 28 10 15 1015.1 1015.0 0.0
21/07:00pm 25.6 24.8 18.0 63 4.8 E 19 28 10 15 1014.8 1014.7 0.0
21/06:30pm 25.8 23.9 17.7 61 5.1 E 24 33 13 18 1014.2 1014.1 0.0
21/06:00pm 26.3 25.0 18.2 61 5.1 E 22 32 12 17 1013.9 1013.8 0.0
21/05:30pm 26.7 25.3 18.0 59 5.5 ENE 22 32 12 17 1013.3 1013.2 0.0
21/05:00pm 27.2 25.8 17.9 56 5.9 E 22 32 12 17 1013.0 1012.9 0.0
21/04:30pm 28.1 26.7 17.9 54 6.5 ENE 22 30 12 16 1012.6 1012.5 0.0
21/04:00pm 28.0 26.9 18.7 57 6.0 ENE 22 33 12 18 1012.5 1012.4 0.0
21/03:30pm 29.1 28.5 18.8 53 6.6 ENE 20 33 11 18 1012.3 1012.2 0.0
21/03:00pm 29.4 28.0 18.8 53 6.8 ENE 24 35 13 19 1012.5 1012.4 0.0
21/02:30pm 29.6 29.4 19.3 54 6.7 ENE 19 24 10 13 1012.8 1012.7 0.0
21/02:00pm 28.6 27.8 18.4 54 6.5 ENE 20 32 11 17 1013.0 1012.9 0.0
21/01:30pm 29.4 29.1 19.1 54 6.7 E 19 28 10 15 1013.4 1013.3 0.0
21/01:00pm 28.9 28.9 19.8 58 6.0 E 19 26 10 14 1013.8 1013.7 0.0
21/12:30pm 27.9 27.9 18.9 58 5.8 NE 17 24 9 13 1014.0 1013.9 0.0
21/12:00pm 28.6 28.0 18.4 54 6.5 E 19 32 10 17 1014.1 1014.0 0.0
21/11:30am 28.4 28.0 18.8 56 6.2 ESE 19 32 10 17 1014.3 1014.2 0.0
21/11:00am 28.4 28.4 20.2 61 5.4 ESE 20 28 11 15 1014.4 1014.3 0.0
21/10:30am 29.2 30.0 20.6 59 5.7 ESE 17 28 9 15 1014.6 1014.5 0.0
21/10:00am 28.0 28.1 20.0 61 5.2 SE 19 24 10 13 1014.7 1014.6 0.0
21/09:30am 27.7 28.2 20.0 63 5.0 SE 17 22 9 12 1014.7 1014.6 0.0
21/09:00am 27.0 27.5 20.1 66 4.5 SE 17 24 9 13 1014.6 1014.5 0.0
21/08:30am 26.8 27.9 20.4 68 4.2 SSE 15 24 8 13 1014.4 1014.3 0.0
21/08:00am 25.8 25.7 19.9 70 3.8 SE 20 24 11 13 1014.1 1014.0 0.0
21/07:30am 25.1 26.8 20.1 74 3.2 S 11 17 6 9 1014.1 1014.0 0.0
21/07:00am 24.0 25.7 19.3 75 3.0 SSE 9 11 5 6 1013.8 1013.7 0.0
21/06:30am 23.0 25.1 19.4 80 2.3 S 7 11 4 6 1013.3 1013.2 0.0
21/06:00am 21.8 25.1 19.2 85 1.6 CALM 0 4 0 2 1012.9 1012.8 0.0
21/05:30am 21.7 23.8 18.9 84 1.8 S 6 9 3 5 1012.5 1012.4 0.0
21/05:00am 21.8 23.9 19.0 84 1.8 SSW 6 7 3 4 1012.1 1012.0 0.0
21/04:30am 22.1 24.3 19.1 83 1.9 SSE 6 7 3 4 1011.8 1011.7 0.0
21/04:00am 22.5 24.4 18.9 80 2.3 S 7 11 4 6 1011.6 1011.5 0.0
21/03:30am 23.0 25.1 19.4 80 2.3 S 7 9 4 5 1011.3 1011.2 0.0
21/03:00am 23.1 25.5 19.7 81 2.2 S 6 7 3 4 1011.2 1011.1 0.0
21/02:30am 22.7 25.1 19.7 83 1.9 WSW 6 7 3 4 1011.3 1011.2 0.0
21/02:00am 22.5 25.2 19.5 83 1.9 SW 4 7 2 4 1011.3 1011.2 0.0
21/01:30am 23.5 26.2 18.6 74 3.1 ESE 2 7 1 4 1011.5 1011.4 0.0
21/01:00am 23.7 25.6 19.0 75 3.0 SE 7 9 4 5 1011.7 1011.6 0.0
21/12:30am 23.7 25.8 19.4 77 2.8 SSE 7 9 4 5 1012.1 1012.0 0.0
21/12:00am 24.0 27.4 19.3 75 3.0 CALM 0 0 0 0 1012.3 1012.2 0.0
 
Date/Time
EST
Temp
°C
App
Temp
°C
Dew
Point
°C
Rel
Hum
%
Delta-T
°C
Wind Press
QNH
hPa
Press
MSL
hPa
Rain since
9am
mm
Dir  Spd
km/h
Gust
km/h
Spd
kts
Gust
kts
20/11:30pm 23.9 27.4 19.6 77 2.8 CALM 0 0 0 0 1012.3 1012.2 0.0
20/11:00pm 24.4 26.3 19.0 72 3.4 SE 7 11 4 6 1012.3 1012.2 0.0
20/10:30pm 24.7 26.7 19.1 71 3.6 SE 7 9 4 5 1012.4 1012.3 0.0
20/10:00pm 24.7 26.4 18.6 69 3.9 SE 7 9 4 5 1012.2 1012.1 0.0
20/09:30pm 25.3 26.6 18.5 66 4.3 ESE 9 15 5 8 1011.9 1011.8 0.0
20/09:00pm 25.5 26.5 18.7 66 4.3 ESE 11 17 6 9 1011.5 1011.4 0.0
20/08:30pm 25.6 26.3 18.8 66 4.3 E 13 19 7 10 1011.1 1011.0 0.0
20/08:00pm 26.0 26.1 18.4 63 4.8 E 15 20 8 11 1010.7 1010.6 0.0
20/07:30pm 26.1 26.8 18.8 64 4.7 ENE 13 20 7 11 1010.2 1010.1 0.0
20/07:00pm 26.2 25.9 18.3 61 5.0 E 17 24 9 13 1009.6 1009.5 0.0
20/06:30pm 26.8 26.0 18.4 60 5.3 E 20 30 11 16 1009.0 1008.9 0.0
20/06:00pm 27.5 26.7 18.5 58 5.8 E 20 28 11 15 1008.5 1008.4 0.0
20/05:30pm 28.6 28.2 19.0 56 6.2 E 19 28 10 15 1007.9 1007.8 0.0
20/05:00pm 29.1 28.2 19.1 54 6.5 ESE 22 28 12 15 1007.4 1007.3 0.0
20/04:30pm 29.9 29.8 19.6 54 6.7 ESE 19 28 10 15 1007.1 1007.0 0.0
20/04:00pm 29.7 29.3 19.4 54 6.7 ENE 20 32 11 17 1006.9 1006.8 0.0
20/03:30pm 30.5 30.1 20.1 53 6.9 E 22 30 12 16 1006.7 1006.6 0.0
20/03:00pm 30.7 31.0 20.3 53 6.9 NNE 19 30 10 16 1006.4 1006.3 0.0
20/02:30pm 33.0 30.2 11.5 27 12.6 W 17 24 9 13 1006.5 1006.4 0.0
20/02:00pm 32.5 31.6 12.7 30 11.8 WSW 9 26 5 14 1006.7 1006.6 0.0
20/01:30pm 31.6 32.0 16.4 40 9.5 ENE 9 20 5 11 1007.0 1006.9 0.0
20/01:00pm 31.3 31.9 16.9 42 9.1 SW 9 15 5 8 1007.3 1007.2 0.0
20/12:30pm 30.9 33.5 20.5 54 6.9 ENE 7 11 4 6 1007.5 1007.4 0.0
20/12:00pm 30.0 31.5 18.1 49 7.6 NNW 7 11 4 6 1007.8 1007.7 0.0
20/11:30am 29.9 31.9 19.9 55 6.6 WSW 9 13 5 7 1008.2 1008.1 0.0
20/11:00am 29.9 33.3 20.2 56 6.4 N 2 7 1 4 1008.4 1008.3 0.0
20/10:30am 28.9 30.3 18.7 54 6.6 W 9 15 5 8 1008.7 1008.6 0.0
20/10:00am 28.7 29.5 18.2 53 6.7 S 11 17 6 9 1008.7 1008.6 0.0
20/09:30am 28.1 29.3 17.3 52 6.8 SW 7 13 4 7 1008.6 1008.5 0.0
20/09:00am 27.7 27.5 15.7 48 7.4 SW 11 15 6 8 1008.4 1008.3 22.6
20/08:30am 27.0 27.0 15.1 48 7.2 W 9 11 5 6 1008.4 1008.3 22.6
20/08:00am 25.9 26.2 15.0 51 6.6 W 7 11 4 6 1008.1 1008.0 22.6
20/07:30am 24.7 25.9 14.8 54 5.9 WSW 2 6 1 3 1007.9 1007.8 22.6
20/07:00am 23.7 23.9 15.7 61 4.8 W 9 11 5 6 1007.7 1007.6 22.6
20/06:30am 23.0 24.7 15.1 61 4.7 CALM 0 0 0 0 1007.3 1007.2 22.6
20/06:00am 22.5 23.0 15.6 65 4.1 SW 7 9 4 5 1006.7 1006.6 22.6
20/05:30am 22.7 23.7 16.9 70 3.6 SW 7 9 4 5 1006.2 1006.1 22.6
20/05:00am 23.0 24.5 17.5 71 3.4 SW 6 7 3 4 1005.9 1005.8 22.6
20/04:30am 23.5 25.7 17.5 69 3.7 SW 2 7 1 4 1005.4 1005.3 22.6
20/04:00am 23.4 26.3 18.3 73 3.2 CALM 0 0 0 0 1005.0 1004.9 22.6
20/03:30am 23.7 24.3 19.4 77 2.8 W 15 20 8 11 1004.6 1004.5 22.6
20/03:00am 23.5 26.1 20.4 83 2.0 WSW 7 11 4 6 1004.5 1004.4 22.6
20/02:30am 23.6 26.5 21.1 86 1.6 SSW 7 11 4 6 1004.5 1004.4 22.6
20/02:00am 23.7 26.9 21.2 86 1.6 SSE 6 9 3 5 1004.7 1004.6 22.6
20/01:30am 23.7 26.3 21.2 86 1.6 SSE 9 13 5 7 1004.9 1004.8 22.6
20/01:00am 24.2 25.6 21.1 83 2.0 SSW 15 19 8 10 1004.9 1004.8 22.6
20/12:30am 23.8 26.0 20.3 81 2.3 SW 9 13 5 7 1004.9 1004.8 22.6
20/12:00am 24.3 26.4 20.2 78 2.7 NNW 9 15 5 8 1005.0 1004.9 22.6
 
Date/Time
EST
Temp
°C
App
Temp
°C
Dew
Point
°C
Rel
Hum
%
Delta-T
°C
Wind Press
QNH
hPa
Press
MSL
hPa
Rain since
9am
mm
Dir  Spd
km/h
Gust
km/h
Spd
kts
Gust
kts
19/11:30pm 24.7 26.3 20.8 79 2.6 NNW 13 19 7 10 1005.1 1005.0 22.6
19/11:00pm 25.8 28.2 22.3 81 2.4 N 13 19 7 10 1005.7 1005.6 22.6
19/10:30pm 24.1 27.2 21.0 83 2.0 NW 6 9 3 5 1004.9 1004.8 22.6
19/10:00pm 24.3 26.7 20.8 81 2.3 NNE 9 13 5 7 1005.3 1005.2 22.6
19/09:30pm 23.6 25.4 20.3 82 2.1 NNE 11 15 6 8 1005.6 1005.5 22.6
19/09:00pm 22.7 22.7 20.2 86 1.6 NNE 20 28 11 15 1005.8 1005.7 22.6
19/08:39pm 22.1 23.1 20.2 89 1.2 ENE 15 22 8 12 1005.4 1005.3 22.4
19/08:30pm 21.8 21.3 19.9 89 1.2 E 22 32 12 17 1005.8 1005.7 22.4
19/08:28pm 21.7 21.0 19.6 88 1.3 E 22 41 12 22 1005.7 1005.6 22.4
19/08:18pm 21.8 18.7 19.7 88 1.3 SSE 35 65 19 35 1006.1 1006.0 21.0
19/08:17pm 21.4 18.0 19.1 87 1.5 SSE 35 65 19 35 1006.3 1006.2 19.6
19/08:14pm 21.6 18.0 19.3 87 1.5 S 37 65 20 35 1006.6 1006.5 14.4
19/08:07pm 22.1 17.0 19.8 87 1.5 S 46 78 25 42 1006.2 1006.1 9.2
19/08:04pm 21.8 17.3 19.0 84 1.8 SSW 41 78 22 42 1005.9 1005.8 5.6
19/08:01pm 21.2 17.7 16.6 75 2.8 S 30 78 16 42 1005.1 1005.0 1.8
19/08:00pm 22.3 19.9 16.3 69 3.6 SSE 24 78 13 42 1005.4 1005.3 0.6
19/07:59pm 27.0 28.8 23.5 81 2.4 SE 20 46 11 25 1005.8 1005.7 0.0
19/07:30pm 28.1 30.4 24.1 79 2.8 NNE 19 28 10 15 1004.3 1004.2 0.0
19/07:00pm 28.3 31.4 24.1 78 2.9 NNE 15 22 8 12 1004.5 1004.4 0.0
19/06:30pm 28.4 30.1 24.0 77 3.0 NNE 22 30 12 16 1003.9 1003.8 0.0
19/06:00pm 29.1 30.1 23.5 72 3.9 NNE 24 32 13 17 1003.1 1003.0 0.0
19/05:30pm 29.9 30.8 23.3 67 4.5 NNE 24 33 13 18 1003.2 1003.1 0.0
19/05:00pm 31.5 32.9 23.6 63 5.5 NE 22 32 12 17 1003.2 1003.1 0.0
19/04:30pm 31.9 33.8 23.7 62 5.7 NNE 20 32 11 17 1003.2 1003.1 0.0
19/04:00pm 32.1 33.3 23.9 62 5.7 NE 24 30 13 16 1003.4 1003.3 0.0
19/03:30pm 32.3 33.9 23.8 61 5.9 NE 22 30 12 16 1003.5 1003.4 0.0
19/03:00pm 32.8 35.2 23.7 58 6.3 NNE 17 26 9 14 1003.8 1003.7 0.0

Latest Capital City Observations: Canberra | Sydney | Melbourne | Brisbane | Adelaide | Perth | Hobart | Darwin

Other formats

Comma delimited format used in spreadsheet applications
http://www.bom.gov.au/fwo/IDQ60901/IDQ60901.94575.axf

JavaScript Object Notation format (JSON) in row-major order
http://www.bom.gov.au/fwo/IDQ60901/IDQ60901.94575.json

Data quality

Most of these data are generated automatically and are frequently updated. Quality checks on data are not normally performed. It is possible for incorrect values to appear. Refer to information at About Latest Weather Observations and please check the disclaimer before using these data.